Steirman, Idaho
Current Conditions -  °F | °C
As of 4:53 AM on Friday 24 Oct 2014 (Local Time) from KBOI Reporting Station
Light Rain Light Rain  
Wind Chill: 51°   Ceiling: 9000
Heat Index: 51°   Visibility: 10mi
Dew Point: 49°   Wind: 5mph
Humidity: 92%   Direction: 220°SW
Pressure: 30.07"   Gusts: NA
Location:  43.8008°N, 115.834°W
Report Text: KBOI 241053Z 22004KT 10SM -RA FEW070 BKN090 OVC110 11/09 A3007 RMK AO2 SLP172 P0001 T01060094
Loading
Personal Weather Stations






























Interactive Weather Map
Tropical Storm Tracking
New forecast layout! Learn more

10-Day Weather Forecast

Advertisements
Track Severe Weather on mobile